Crompton Hill, Indiana
Current Conditions -  °F | °C
As of 9:15 PM on Sunday 25 Jan 2015 (Local Time) from KPRG Reporting Station
Overcast Overcast  
Wind Chill: 17°   Ceiling: 1400
Heat Index: 29°   Visibility: 10mi
Dew Point: 26°   Wind: 17mph
Humidity: 90%   Direction: 40°NE
Pressure: 29.85"   Gusts: 25mph
Location:  39.6513°N, 87.4607°W
Report Text: KPRG 260215Z AUTO 04015G22KT 10SM OVC014 M02/M03 A2985 RMK AO2 T10171031
Loading
Personal Weather Stations






























Interactive Weather Map New forecast layout! Learn more

10-Day Weather Forecast

Advertisements
Track Severe Weather on mobile